sensor_id;sensor_type;location;lat;lon;timestamp;P1;durP1;ratioP1;P2;durP2;ratioP2
38332;SDS011;25748;46.670;14.272;2022-07-25T00:00:41;6.25;;;3.80;;
38332;SDS011;25748;46.670;14.272;2022-07-25T00:03:07;8.68;;;5.13;;
38332;SDS011;25748;46.670;14.272;2022-07-25T00:05:33;6.95;;;4.25;;
38332;SDS011;25748;46.670;14.272;2022-07-25T00:07:59;6.80;;;4.60;;
38332;SDS011;25748;46.670;14.272;2022-07-25T00:10:24;6.32;;;4.13;;
38332;SDS011;25748;46.670;14.272;2022-07-25T00:12:50;6.80;;;4.03;;
38332;SDS011;25748;46.670;14.272;2022-07-25T00:15:15;6.97;;;4.28;;
38332;SDS011;25748;46.670;14.272;2022-07-25T00:17:41;7.95;;;3.72;;
38332;SDS011;25748;46.670;14.272;2022-07-25T00:20:07;8.82;;;4.50;;
38332;SDS011;25748;46.670;14.272;2022-07-25T00:22:33;9.85;;;4.25;;
38332;SDS011;25748;46.670;14.272;2022-07-25T00:24:59;7.20;;;4.00;;
38332;SDS011;25748;46.670;14.272;2022-07-25T00:27:25;9.43;;;4.38;;
38332;SDS011;25748;46.670;14.272;2022-07-25T00:29:51;7.00;;;4.40;;
38332;SDS011;25748;46.670;14.272;2022-07-25T00:32:17;6.60;;;4.55;;
38332;SDS011;25748;46.670;14.272;2022-07-25T00:34:42;7.85;;;4.65;;
38332;SDS011;25748;46.670;14.272;2022-07-25T00:37:08;7.80;;;4.55;;
38332;SDS011;25748;46.670;14.272;2022-07-25T00:39:34;5.80;;;4.18;;
38332;SDS011;25748;46.670;14.272;2022-07-25T00:41:59;7.35;;;4.43;;
38332;SDS011;25748;46.670;14.272;2022-07-25T00:44:29;8.95;;;4.72;;
38332;SDS011;25748;46.670;14.272;2022-07-25T00:46:56;5.95;;;4.40;;
38332;SDS011;25748;46.670;14.272;2022-07-25T00:49:22;7.18;;;4.18;;
38332;SDS011;25748;46.670;14.272;2022-07-25T00:51:49;6.90;;;4.50;;
38332;SDS011;25748;46.670;14.272;2022-07-25T00:54:16;9.90;;;5.05;;
38332;SDS011;25748;46.670;14.272;2022-07-25T00:56:42;7.18;;;4.03;;
38332;SDS011;25748;46.670;14.272;2022-07-25T00:59:08;8.57;;;4.53;;
38332;SDS011;25748;46.670;14.272;2022-07-25T01:01:34;8.02;;;4.70;;
38332;SDS011;25748;46.670;14.272;2022-07-25T01:04:00;12.07;;;4.85;;
38332;SDS011;25748;46.670;14.272;2022-07-25T01:06:26;7.57;;;4.65;;
38332;SDS011;25748;46.670;14.272;2022-07-25T01:08:52;6.00;;;4.13;;
38332;SDS011;25748;46.670;14.272;2022-07-25T01:11:19;8.98;;;4.68;;
38332;SDS011;25748;46.670;14.272;2022-07-25T01:13:45;6.68;;;4.82;;
38332;SDS011;25748;46.670;14.272;2022-07-25T01:16:11;8.75;;;5.05;;
38332;SDS011;25748;46.670;14.272;2022-07-25T01:18:36;7.40;;;4.15;;
38332;SDS011;25748;46.670;14.272;2022-07-25T01:21:02;10.75;;;4.15;;
38332;SDS011;25748;46.670;14.272;2022-07-25T01:23:28;8.60;;;4.53;;
38332;SDS011;25748;46.670;14.272;2022-07-25T01:25:54;7.68;;;4.57;;
38332;SDS011;25748;46.670;14.272;2022-07-25T01:28:20;9.30;;;4.50;;
38332;SDS011;25748;46.670;14.272;2022-07-25T01:30:46;9.88;;;5.28;;
38332;SDS011;25748;46.670;14.272;2022-07-25T01:33:15;11.52;;;4.85;;
38332;SDS011;25748;46.670;14.272;2022-07-25T01:35:42;10.20;;;4.47;;
38332;SDS011;25748;46.670;14.272;2022-07-25T01:38:08;8.35;;;4.97;;
38332;SDS011;25748;46.670;14.272;2022-07-25T01:40:34;6.55;;;4.63;;
38332;SDS011;25748;46.670;14.272;2022-07-25T01:42:59;6.55;;;4.20;;
38332;SDS011;25748;46.670;14.272;2022-07-25T01:45:25;8.93;;;5.40;;
38332;SDS011;25748;46.670;14.272;2022-07-25T01:47:51;7.40;;;5.00;;
38332;SDS011;25748;46.670;14.272;2022-07-25T01:50:17;14.27;;;5.85;;
38332;SDS011;25748;46.670;14.272;2022-07-25T01:52:43;14.02;;;5.90;;
38332;SDS011;25748;46.670;14.272;2022-07-25T01:55:08;9.82;;;5.97;;
38332;SDS011;25748;46.670;14.272;2022-07-25T01:57:34;8.60;;;5.20;;
38332;SDS011;25748;46.670;14.272;2022-07-25T02:00:00;11.05;;;5.30;;
38332;SDS011;25748;46.670;14.272;2022-07-25T02:02:26;10.00;;;5.10;;
38332;SDS011;25748;46.670;14.272;2022-07-25T02:04:52;9.57;;;5.13;;
38332;SDS011;25748;46.670;14.272;2022-07-25T02:07:18;7.85;;;5.25;;
38332;SDS011;25748;46.670;14.272;2022-07-25T02:09:43;9.38;;;4.90;;
38332;SDS011;25748;46.670;14.272;2022-07-25T02:12:09;9.38;;;5.78;;
38332;SDS011;25748;46.670;14.272;2022-07-25T02:14:35;12.70;;;5.60;;
38332;SDS011;25748;46.670;14.272;2022-07-25T02:17:00;9.75;;;4.90;;
38332;SDS011;25748;46.670;14.272;2022-07-25T02:19:26;9.50;;;5.45;;
38332;SDS011;25748;46.670;14.272;2022-07-25T02:21:52;13.32;;;5.32;;
38332;SDS011;25748;46.670;14.272;2022-07-25T02:24:18;9.80;;;5.25;;
38332;SDS011;25748;46.670;14.272;2022-07-25T02:26:43;10.70;;;5.65;;
38332;SDS011;25748;46.670;14.272;2022-07-25T02:29:09;6.65;;;4.50;;
38332;SDS011;25748;46.670;14.272;2022-07-25T02:31:35;8.80;;;5.32;;
38332;SDS011;25748;46.670;14.272;2022-07-25T02:34:00;7.18;;;4.70;;
38332;SDS011;25748;46.670;14.272;2022-07-25T02:36:26;11.38;;;4.80;;
38332;SDS011;25748;46.670;14.272;2022-07-25T02:38:52;10.25;;;5.75;;
38332;SDS011;25748;46.670;14.272;2022-07-25T02:41:18;7.80;;;4.93;;
38332;SDS011;25748;46.670;14.272;2022-07-25T02:43:43;9.02;;;5.22;;
38332;SDS011;25748;46.670;14.272;2022-07-25T02:46:09;8.65;;;5.07;;
38332;SDS011;25748;46.670;14.272;2022-07-25T02:48:37;8.75;;;5.72;;
38332;SDS011;25748;46.670;14.272;2022-07-25T02:51:03;9.82;;;5.03;;
38332;SDS011;25748;46.670;14.272;2022-07-25T02:53:28;10.32;;;6.22;;
38332;SDS011;25748;46.670;14.272;2022-07-25T02:55:54;10.07;;;5.72;;
38332;SDS011;25748;46.670;14.272;2022-07-25T02:58:20;16.45;;;5.20;;
38332;SDS011;25748;46.670;14.272;2022-07-25T03:00:45;7.93;;;5.25;;
38332;SDS011;25748;46.670;14.272;2022-07-25T03:03:11;12.50;;;6.07;;
38332;SDS011;25748;46.670;14.272;2022-07-25T03:05:37;7.88;;;5.25;;
38332;SDS011;25748;46.670;14.272;2022-07-25T03:08:03;10.95;;;4.70;;
38332;SDS011;25748;46.670;14.272;2022-07-25T03:10:29;13.57;;;5.57;;
38332;SDS011;25748;46.670;14.272;2022-07-25T03:12:55;7.72;;;5.22;;
38332;SDS011;25748;46.670;14.272;2022-07-25T03:15:21;10.50;;;5.70;;
38332;SDS011;25748;46.670;14.272;2022-07-25T03:17:46;9.85;;;6.15;;
38332;SDS011;25748;46.670;14.272;2022-07-25T03:20:12;9.20;;;6.07;;
38332;SDS011;25748;46.670;14.272;2022-07-25T03:22:38;9.10;;;5.47;;
38332;SDS011;25748;46.670;14.272;2022-07-25T03:25:04;10.52;;;5.68;;
38332;SDS011;25748;46.670;14.272;2022-07-25T03:27:30;8.55;;;5.80;;
38332;SDS011;25748;46.670;14.272;2022-07-25T03:29:56;9.57;;;5.82;;
38332;SDS011;25748;46.670;14.272;2022-07-25T03:32:22;9.05;;;5.78;;
38332;SDS011;25748;46.670;14.272;2022-07-25T03:34:48;9.82;;;6.07;;
38332;SDS011;25748;46.670;14.272;2022-07-25T03:37:13;8.88;;;5.43;;
38332;SDS011;25748;46.670;14.272;2022-07-25T03:39:39;16.48;;;6.22;;
38332;SDS011;25748;46.670;14.272;2022-07-25T03:42:05;11.60;;;5.93;;
38332;SDS011;25748;46.670;14.272;2022-07-25T03:44:30;7.60;;;5.20;;
38332;SDS011;25748;46.670;14.272;2022-07-25T03:46:56;8.23;;;5.22;;
38332;SDS011;25748;46.670;14.272;2022-07-25T03:49:22;11.07;;;6.05;;
38332;SDS011;25748;46.670;14.272;2022-07-25T03:51:48;8.48;;;5.20;;
38332;SDS011;25748;46.670;14.272;2022-07-25T03:54:13;7.32;;;5.35;;
38332;SDS011;25748;46.670;14.272;2022-07-25T03:56:43;9.50;;;6.45;;
38332;SDS011;25748;46.670;14.272;2022-07-25T03:59:11;10.50;;;5.18;;
38332;SDS011;25748;46.670;14.272;2022-07-25T04:01:39;10.07;;;6.10;;
38332;SDS011;25748;46.670;14.272;2022-07-25T04:04:06;9.77;;;5.80;;
38332;SDS011;25748;46.670;14.272;2022-07-25T04:06:32;9.20;;;5.80;;
38332;SDS011;25748;46.670;14.272;2022-07-25T04:08:58;8.93;;;6.05;;
38332;SDS011;25748;46.670;14.272;2022-07-25T04:11:23;11.20;;;5.70;;
38332;SDS011;25748;46.670;14.272;2022-07-25T04:13:49;9.88;;;5.70;;
38332;SDS011;25748;46.670;14.272;2022-07-25T04:16:15;10.00;;;6.03;;
38332;SDS011;25748;46.670;14.272;2022-07-25T04:18:42;11.60;;;5.68;;
38332;SDS011;25748;46.670;14.272;2022-07-25T04:21:08;10.98;;;5.97;;
38332;SDS011;25748;46.670;14.272;2022-07-25T04:23:34;11.00;;;6.28;;
38332;SDS011;25748;46.670;14.272;2022-07-25T04:26:00;11.35;;;5.50;;
38332;SDS011;25748;46.670;14.272;2022-07-25T04:28:26;9.32;;;5.63;;
38332;SDS011;25748;46.670;14.272;2022-07-25T04:30:51;9.50;;;5.80;;
38332;SDS011;25748;46.670;14.272;2022-07-25T04:33:17;9.35;;;5.53;;
38332;SDS011;25748;46.670;14.272;2022-07-25T04:35:44;12.07;;;5.65;;
38332;SDS011;25748;46.670;14.272;2022-07-25T04:38:10;10.23;;;6.25;;
38332;SDS011;25748;46.670;14.272;2022-07-25T04:40:36;9.27;;;5.25;;
38332;SDS011;25748;46.670;14.272;2022-07-25T04:43:02;10.30;;;5.53;;
38332;SDS011;25748;46.670;14.272;2022-07-25T04:45:28;11.35;;;5.70;;
38332;SDS011;25748;46.670;14.272;2022-07-25T04:47:55;11.85;;;5.45;;
38332;SDS011;25748;46.670;14.272;2022-07-25T04:50:20;9.00;;;5.45;;
38332;SDS011;25748;46.670;14.272;2022-07-25T04:52:46;11.38;;;6.43;;
38332;SDS011;25748;46.670;14.272;2022-07-25T04:55:12;11.05;;;6.15;;
38332;SDS011;25748;46.670;14.272;2022-07-25T04:57:38;9.60;;;6.15;;
38332;SDS011;25748;46.670;14.272;2022-07-25T05:00:04;9.60;;;6.25;;
38332;SDS011;25748;46.670;14.272;2022-07-25T05:02:32;10.70;;;6.78;;
38332;SDS011;25748;46.670;14.272;2022-07-25T05:04:58;10.15;;;6.30;;
38332;SDS011;25748;46.670;14.272;2022-07-25T05:07:24;9.05;;;5.68;;
38332;SDS011;25748;46.670;14.272;2022-07-25T05:09:50;9.38;;;6.38;;
38332;SDS011;25748;46.670;14.272;2022-07-25T05:12:16;9.70;;;5.10;;
38332;SDS011;25748;46.670;14.272;2022-07-25T05:14:42;11.02;;;6.13;;
38332;SDS011;25748;46.670;14.272;2022-07-25T05:17:09;10.73;;;5.75;;
38332;SDS011;25748;46.670;14.272;2022-07-25T05:19:35;8.55;;;5.25;;
38332;SDS011;25748;46.670;14.272;2022-07-25T05:22:01;9.57;;;6.40;;
38332;SDS011;25748;46.670;14.272;2022-07-25T05:24:27;8.95;;;5.25;;
38332;SDS011;25748;46.670;14.272;2022-07-25T05:26:53;10.38;;;5.45;;
38332;SDS011;25748;46.670;14.272;2022-07-25T05:29:18;9.95;;;6.18;;
38332;SDS011;25748;46.670;14.272;2022-07-25T05:31:44;8.85;;;5.43;;
38332;SDS011;25748;46.670;14.272;2022-07-25T05:34:10;12.73;;;6.07;;
38332;SDS011;25748;46.670;14.272;2022-07-25T05:36:35;8.20;;;5.65;;
38332;SDS011;25748;46.670;14.272;2022-07-25T05:39:02;9.18;;;6.13;;
38332;SDS011;25748;46.670;14.272;2022-07-25T05:41:28;10.77;;;5.88;;
38332;SDS011;25748;46.670;14.272;2022-07-25T05:43:53;11.35;;;6.07;;
38332;SDS011;25748;46.670;14.272;2022-07-25T05:46:19;17.20;;;6.72;;
38332;SDS011;25748;46.670;14.272;2022-07-25T05:48:45;9.18;;;6.80;;
38332;SDS011;25748;46.670;14.272;2022-07-25T05:51:11;11.30;;;6.80;;
38332;SDS011;25748;46.670;14.272;2022-07-25T05:53:36;10.13;;;6.47;;
38332;SDS011;25748;46.670;14.272;2022-07-25T05:56:02;10.38;;;7.45;;
38332;SDS011;25748;46.670;14.272;2022-07-25T05:58:29;10.15;;;7.10;;
38332;SDS011;25748;46.670;14.272;2022-07-25T06:00:55;9.40;;;6.60;;
38332;SDS011;25748;46.670;14.272;2022-07-25T06:03:21;10.93;;;7.18;;
38332;SDS011;25748;46.670;14.272;2022-07-25T06:05:47;9.35;;;6.63;;
38332;SDS011;25748;46.670;14.272;2022-07-25T06:08:13;10.05;;;7.50;;
38332;SDS011;25748;46.670;14.272;2022-07-25T06:10:39;9.88;;;7.18;;
38332;SDS011;25748;46.670;14.272;2022-07-25T06:13:06;11.18;;;7.57;;
38332;SDS011;25748;46.670;14.272;2022-07-25T06:15:32;10.02;;;8.27;;
38332;SDS011;25748;46.670;14.272;2022-07-25T06:17:58;11.85;;;7.65;;
38332;SDS011;25748;46.670;14.272;2022-07-25T06:20:24;14.88;;;7.78;;
38332;SDS011;25748;46.670;14.272;2022-07-25T06:22:50;12.13;;;7.70;;
38332;SDS011;25748;46.670;14.272;2022-07-25T06:25:16;14.25;;;8.57;;
38332;SDS011;25748;46.670;14.272;2022-07-25T06:27:41;11.75;;;6.93;;
38332;SDS011;25748;46.670;14.272;2022-07-25T06:30:07;13.45;;;9.25;;
38332;SDS011;25748;46.670;14.272;2022-07-25T06:32:34;10.20;;;7.75;;
38332;SDS011;25748;46.670;14.272;2022-07-25T06:35:00;12.30;;;8.27;;
38332;SDS011;25748;46.670;14.272;2022-07-25T06:37:26;10.75;;;8.10;;
38332;SDS011;25748;46.670;14.272;2022-07-25T06:39:52;13.68;;;8.38;;
38332;SDS011;25748;46.670;14.272;2022-07-25T06:42:17;10.60;;;7.55;;
38332;SDS011;25748;46.670;14.272;2022-07-25T06:44:43;11.23;;;7.97;;
38332;SDS011;25748;46.670;14.272;2022-07-25T06:47:09;13.57;;;8.45;;
38332;SDS011;25748;46.670;14.272;2022-07-25T06:49:45;9.95;;;7.75;;
38332;SDS011;25748;46.670;14.272;2022-07-25T06:52:11;9.88;;;8.02;;
38332;SDS011;25748;46.670;14.272;2022-07-25T06:54:37;11.52;;;8.18;;
38332;SDS011;25748;46.670;14.272;2022-07-25T06:57:02;12.52;;;8.15;;
38332;SDS011;25748;46.670;14.272;2022-07-25T06:59:28;13.60;;;8.35;;
38332;SDS011;25748;46.670;14.272;2022-07-25T07:01:54;11.57;;;8.85;;
38332;SDS011;25748;46.670;14.272;2022-07-25T07:04:20;13.38;;;8.55;;
38332;SDS011;25748;46.670;14.272;2022-07-25T07:06:46;11.07;;;7.55;;
38332;SDS011;25748;46.670;14.272;2022-07-25T07:09:11;15.10;;;8.50;;
38332;SDS011;25748;46.670;14.272;2022-07-25T07:11:37;10.05;;;8.25;;
38332;SDS011;25748;46.670;14.272;2022-07-25T07:14:03;10.65;;;8.07;;
38332;SDS011;25748;46.670;14.272;2022-07-25T07:16:29;12.25;;;8.98;;
38332;SDS011;25748;46.670;14.272;2022-07-25T07:18:55;10.30;;;8.00;;
38332;SDS011;25748;46.670;14.272;2022-07-25T07:21:21;12.32;;;8.80;;
38332;SDS011;25748;46.670;14.272;2022-07-25T07:23:47;9.98;;;8.48;;
38332;SDS011;25748;46.670;14.272;2022-07-25T07:26:13;11.18;;;8.02;;
38332;SDS011;25748;46.670;14.272;2022-07-25T07:28:39;12.27;;;8.88;;
38332;SDS011;25748;46.670;14.272;2022-07-25T07:31:05;11.82;;;8.85;;
38332;SDS011;25748;46.670;14.272;2022-07-25T07:33:30;10.63;;;8.82;;
38332;SDS011;25748;46.670;14.272;2022-07-25T07:35:57;11.60;;;8.77;;
38332;SDS011;25748;46.670;14.272;2022-07-25T07:38:23;11.10;;;8.70;;
38332;SDS011;25748;46.670;14.272;2022-07-25T07:40:50;11.02;;;8.27;;
38332;SDS011;25748;46.670;14.272;2022-07-25T07:43:16;9.65;;;8.10;;
38332;SDS011;25748;46.670;14.272;2022-07-25T07:45:42;11.10;;;8.27;;
38332;SDS011;25748;46.670;14.272;2022-07-25T07:48:08;10.88;;;8.85;;
38332;SDS011;25748;46.670;14.272;2022-07-25T07:50:34;13.77;;;8.57;;
38332;SDS011;25748;46.670;14.272;2022-07-25T07:53:00;10.43;;;8.85;;
38332;SDS011;25748;46.670;14.272;2022-07-25T07:55:26;11.75;;;8.48;;
38332;SDS011;25748;46.670;14.272;2022-07-25T07:58:16;13.48;;;8.05;;
38332;SDS011;25748;46.670;14.272;2022-07-25T08:00:44;10.77;;;8.70;;
38332;SDS011;25748;46.670;14.272;2022-07-25T08:03:11;11.63;;;8.68;;
38332;SDS011;25748;46.670;14.272;2022-07-25T08:05:39;10.45;;;7.90;;
38332;SDS011;25748;46.670;14.272;2022-07-25T08:08:07;11.23;;;7.18;;
38332;SDS011;25748;46.670;14.272;2022-07-25T08:10:35;11.18;;;7.88;;
38332;SDS011;25748;46.670;14.272;2022-07-25T08:13:10;11.30;;;7.68;;
38332;SDS011;25748;46.670;14.272;2022-07-25T08:15:41;10.45;;;7.28;;
38332;SDS011;25748;46.670;14.272;2022-07-25T08:18:09;9.40;;;7.55;;
38332;SDS011;25748;46.670;14.272;2022-07-25T08:20:35;11.57;;;7.65;;
38332;SDS011;25748;46.670;14.272;2022-07-25T08:23:01;9.98;;;8.05;;
38332;SDS011;25748;46.670;14.272;2022-07-25T08:25:27;9.45;;;7.55;;
38332;SDS011;25748;46.670;14.272;2022-07-25T08:27:53;10.05;;;7.47;;
38332;SDS011;25748;46.670;14.272;2022-07-25T08:30:20;9.18;;;7.55;;
38332;SDS011;25748;46.670;14.272;2022-07-25T08:35:11;9.38;;;7.28;;
38332;SDS011;25748;46.670;14.272;2022-07-25T08:37:37;8.93;;;7.03;;
38332;SDS011;25748;46.670;14.272;2022-07-25T08:40:03;10.45;;;7.97;;
38332;SDS011;25748;46.670;14.272;2022-07-25T08:42:29;7.90;;;6.68;;
38332;SDS011;25748;46.670;14.272;2022-07-25T08:44:57;8.07;;;6.82;;
38332;SDS011;25748;46.670;14.272;2022-07-25T08:47:27;9.60;;;7.18;;
38332;SDS011;25748;46.670;14.272;2022-07-25T08:49:53;9.35;;;6.90;;
38332;SDS011;25748;46.670;14.272;2022-07-25T08:52:20;12.23;;;6.88;;
38332;SDS011;25748;46.670;14.272;2022-07-25T08:54:47;9.18;;;7.78;;
38332;SDS011;25748;46.670;14.272;2022-07-25T08:57:13;8.50;;;6.97;;
38332;SDS011;25748;46.670;14.272;2022-07-25T08:59:39;8.27;;;7.05;;
38332;SDS011;25748;46.670;14.272;2022-07-25T09:02:05;10.00;;;7.88;;
38332;SDS011;25748;46.670;14.272;2022-07-25T09:04:34;8.35;;;6.72;;
38332;SDS011;25748;46.670;14.272;2022-07-25T09:07:01;8.52;;;6.22;;
38332;SDS011;25748;46.670;14.272;2022-07-25T09:09:32;9.43;;;6.78;;
38332;SDS011;25748;46.670;14.272;2022-07-25T09:11:59;7.88;;;6.43;;
38332;SDS011;25748;46.670;14.272;2022-07-25T09:14:26;10.38;;;6.75;;
38332;SDS011;25748;46.670;14.272;2022-07-25T09:17:05;8.85;;;6.75;;
38332;SDS011;25748;46.670;14.272;2022-07-25T09:19:31;15.50;;;6.60;;
38332;SDS011;25748;46.670;14.272;2022-07-25T09:22:04;10.20;;;7.47;;
38332;SDS011;25748;46.670;14.272;2022-07-25T09:24:31;13.00;;;6.88;;
38332;SDS011;25748;46.670;14.272;2022-07-25T09:26:59;10.23;;;6.65;;
38332;SDS011;25748;46.670;14.272;2022-07-25T09:29:30;7.38;;;6.45;;
38332;SDS011;25748;46.670;14.272;2022-07-25T09:31:57;9.95;;;7.68;;
38332;SDS011;25748;46.670;14.272;2022-07-25T09:34:43;10.50;;;7.15;;
38332;SDS011;25748;46.670;14.272;2022-07-25T09:37:11;10.15;;;7.68;;
38332;SDS011;25748;46.670;14.272;2022-07-25T09:39:39;14.48;;;7.60;;
38332;SDS011;25748;46.670;14.272;2022-07-25T09:44:39;9.02;;;7.00;;
38332;SDS011;25748;46.670;14.272;2022-07-25T09:47:12;9.77;;;7.40;;
38332;SDS011;25748;46.670;14.272;2022-07-25T09:49:40;8.95;;;7.13;;
38332;SDS011;25748;46.670;14.272;2022-07-25T09:52:08;9.52;;;6.50;;
38332;SDS011;25748;46.670;14.272;2022-07-25T09:54:35;8.30;;;6.75;;
38332;SDS011;25748;46.670;14.272;2022-07-25T09:57:01;9.32;;;7.25;;
38332;SDS011;25748;46.670;14.272;2022-07-25T09:59:27;9.10;;;6.35;;
38332;SDS011;25748;46.670;14.272;2022-07-25T10:04:46;10.48;;;7.13;;
38332;SDS011;25748;46.670;14.272;2022-07-25T10:07:18;9.55;;;6.78;;
38332;SDS011;25748;46.670;14.272;2022-07-25T10:09:49;9.45;;;7.40;;
38332;SDS011;25748;46.670;14.272;2022-07-25T10:12:19;9.20;;;7.50;;
38332;SDS011;25748;46.670;14.272;2022-07-25T10:17:36;11.77;;;7.03;;
38332;SDS011;25748;46.670;14.272;2022-07-25T10:20:03;10.70;;;6.53;;
38332;SDS011;25748;46.670;14.272;2022-07-25T10:22:41;9.02;;;7.15;;
38332;SDS011;25748;46.670;14.272;2022-07-25T10:25:10;8.30;;;6.22;;
38332;SDS011;25748;46.670;14.272;2022-07-25T10:27:41;10.52;;;6.68;;
38332;SDS011;25748;46.670;14.272;2022-07-25T10:30:33;8.13;;;6.32;;
38332;SDS011;25748;46.670;14.272;2022-07-25T10:33:09;9.38;;;6.55;;
38332;SDS011;25748;46.670;14.272;2022-07-25T10:35:37;8.98;;;6.50;;
38332;SDS011;25748;46.670;14.272;2022-07-25T10:38:03;9.43;;;7.00;;
38332;SDS011;25748;46.670;14.272;2022-07-25T10:40:35;9.57;;;6.88;;
38332;SDS011;25748;46.670;14.272;2022-07-25T10:48:27;7.95;;;6.20;;
38332;SDS011;25748;46.670;14.272;2022-07-25T10:51:02;11.18;;;7.13;;
38332;SDS011;25748;46.670;14.272;2022-07-25T10:53:37;8.45;;;5.97;;
38332;SDS011;25748;46.670;14.272;2022-07-25T10:56:12;8.80;;;6.57;;
38332;SDS011;25748;46.670;14.272;2022-07-25T10:58:50;8.93;;;6.55;;
38332;SDS011;25748;46.670;14.272;2022-07-25T11:03:55;7.07;;;6.28;;
38332;SDS011;25748;46.670;14.272;2022-07-25T11:08:57;6.72;;;6.03;;
38332;SDS011;25748;46.670;14.272;2022-07-25T11:14:01;8.30;;;6.63;;
38332;SDS011;25748;46.670;14.272;2022-07-25T11:16:28;8.32;;;6.63;;
38332;SDS011;25748;46.670;14.272;2022-07-25T11:18:54;9.50;;;6.47;;
38332;SDS011;25748;46.670;14.272;2022-07-25T11:21:20;7.22;;;6.20;;
38332;SDS011;25748;46.670;14.272;2022-07-25T11:23:49;8.65;;;6.45;;
38332;SDS011;25748;46.670;14.272;2022-07-25T11:26:17;7.40;;;6.57;;
38332;SDS011;25748;46.670;14.272;2022-07-25T11:28:44;8.80;;;5.97;;
38332;SDS011;25748;46.670;14.272;2022-07-25T11:31:13;8.88;;;6.63;;
38332;SDS011;25748;46.670;14.272;2022-07-25T11:33:41;11.23;;;6.47;;
38332;SDS011;25748;46.670;14.272;2022-07-25T11:36:10;8.88;;;7.03;;
38332;SDS011;25748;46.670;14.272;2022-07-25T11:38:37;8.93;;;6.25;;
38332;SDS011;25748;46.670;14.272;2022-07-25T11:41:04;9.57;;;6.50;;
38332;SDS011;25748;46.670;14.272;2022-07-25T11:43:30;7.45;;;6.43;;
38332;SDS011;25748;46.670;14.272;2022-07-25T11:45:57;8.23;;;6.40;;
38332;SDS011;25748;46.670;14.272;2022-07-25T11:48:31;7.30;;;6.32;;
38332;SDS011;25748;46.670;14.272;2022-07-25T11:51:17;7.57;;;6.33;;
38332;SDS011;25748;46.670;14.272;2022-07-25T11:53:47;7.82;;;6.40;;
38332;SDS011;25748;46.670;14.272;2022-07-25T11:56:21;7.93;;;5.93;;
38332;SDS011;25748;46.670;14.272;2022-07-25T11:58:48;7.60;;;6.88;;
38332;SDS011;25748;46.670;14.272;2022-07-25T12:01:22;8.30;;;7.13;;
38332;SDS011;25748;46.670;14.272;2022-07-25T12:03:49;7.65;;;5.88;;
38332;SDS011;25748;46.670;14.272;2022-07-25T12:06:15;7.32;;;6.55;;
38332;SDS011;25748;46.670;14.272;2022-07-25T12:08:41;9.52;;;6.88;;
38332;SDS011;25748;46.670;14.272;2022-07-25T12:11:17;9.70;;;6.30;;
38332;SDS011;25748;46.670;14.272;2022-07-25T12:13:44;7.53;;;6.70;;
38332;SDS011;25748;46.670;14.272;2022-07-25T12:16:10;7.75;;;6.53;;
38332;SDS011;25748;46.670;14.272;2022-07-25T12:18:36;7.78;;;6.50;;
38332;SDS011;25748;46.670;14.272;2022-07-25T12:21:03;8.02;;;6.03;;
38332;SDS011;25748;46.670;14.272;2022-07-25T12:23:28;6.97;;;6.28;;
38332;SDS011;25748;46.670;14.272;2022-07-25T12:25:54;6.90;;;6.05;;
38332;SDS011;25748;46.670;14.272;2022-07-25T12:28:20;8.70;;;6.68;;
38332;SDS011;25748;46.670;14.272;2022-07-25T12:30:46;7.25;;;6.53;;
38332;SDS011;25748;46.670;14.272;2022-07-25T12:33:12;9.88;;;6.35;;
38332;SDS011;25748;46.670;14.272;2022-07-25T12:35:42;7.60;;;6.68;;
38332;SDS011;25748;46.670;14.272;2022-07-25T12:38:08;11.25;;;6.00;;
38332;SDS011;25748;46.670;14.272;2022-07-25T12:40:35;6.47;;;5.63;;
38332;SDS011;25748;46.670;14.272;2022-07-25T12:43:02;6.60;;;5.88;;
38332;SDS011;25748;46.670;14.272;2022-07-25T12:45:28;7.88;;;6.38;;
38332;SDS011;25748;46.670;14.272;2022-07-25T12:47:54;9.27;;;6.65;;
38332;SDS011;25748;46.670;14.272;2022-07-25T12:50:20;7.68;;;5.95;;
38332;SDS011;25748;46.670;14.272;2022-07-25T12:52:46;7.97;;;7.18;;
38332;SDS011;25748;46.670;14.272;2022-07-25T12:55:13;6.97;;;6.28;;
38332;SDS011;25748;46.670;14.272;2022-07-25T12:57:40;10.63;;;6.35;;
38332;SDS011;25748;46.670;14.272;2022-07-25T13:00:07;7.57;;;6.78;;
38332;SDS011;25748;46.670;14.272;2022-07-25T13:02:35;7.18;;;6.28;;
38332;SDS011;25748;46.670;14.272;2022-07-25T13:05:01;7.22;;;6.20;;
38332;SDS011;25748;46.670;14.272;2022-07-25T13:07:27;7.78;;;6.55;;
38332;SDS011;25748;46.670;14.272;2022-07-25T13:09:52;8.10;;;5.90;;
38332;SDS011;25748;46.670;14.272;2022-07-25T13:12:18;7.18;;;6.47;;
38332;SDS011;25748;46.670;14.272;2022-07-25T13:14:44;7.47;;;6.47;;
38332;SDS011;25748;46.670;14.272;2022-07-25T13:17:10;8.25;;;6.22;;
38332;SDS011;25748;46.670;14.272;2022-07-25T13:19:36;7.30;;;6.18;;
38332;SDS011;25748;46.670;14.272;2022-07-25T13:22:01;6.75;;;5.80;;
38332;SDS011;25748;46.670;14.272;2022-07-25T13:24:27;6.95;;;6.05;;
38332;SDS011;25748;46.670;14.272;2022-07-25T13:26:53;8.25;;;6.13;;
38332;SDS011;25748;46.670;14.272;2022-07-25T13:29:19;6.97;;;6.28;;
38332;SDS011;25748;46.670;14.272;2022-07-25T13:31:44;7.90;;;6.47;;
38332;SDS011;25748;46.670;14.272;2022-07-25T13:34:11;7.40;;;5.70;;
38332;SDS011;25748;46.670;14.272;2022-07-25T13:36:37;8.05;;;6.05;;
38332;SDS011;25748;46.670;14.272;2022-07-25T13:39:03;6.93;;;6.20;;
38332;SDS011;25748;46.670;14.272;2022-07-25T13:41:30;6.68;;;5.50;;
38332;SDS011;25748;46.670;14.272;2022-07-25T13:43:55;6.60;;;5.82;;
38332;SDS011;25748;46.670;14.272;2022-07-25T13:46:21;7.18;;;5.68;;
38332;SDS011;25748;46.670;14.272;2022-07-25T13:48:47;7.82;;;6.07;;
38332;SDS011;25748;46.670;14.272;2022-07-25T13:51:13;6.53;;;5.82;;
38332;SDS011;25748;46.670;14.272;2022-07-25T13:53:39;6.18;;;5.60;;
38332;SDS011;25748;46.670;14.272;2022-07-25T13:56:05;9.73;;;6.07;;
38332;SDS011;25748;46.670;14.272;2022-07-25T13:58:31;7.22;;;6.20;;
38332;SDS011;25748;46.670;14.272;2022-07-25T14:00:57;6.85;;;6.00;;
38332;SDS011;25748;46.670;14.272;2022-07-25T14:03:22;8.32;;;6.05;;
38332;SDS011;25748;46.670;14.272;2022-07-25T14:05:48;11.82;;;6.28;;
38332;SDS011;25748;46.670;14.272;2022-07-25T14:08:14;10.38;;;5.90;;
38332;SDS011;25748;46.670;14.272;2022-07-25T14:10:40;8.75;;;5.93;;
38332;SDS011;25748;46.670;14.272;2022-07-25T14:13:05;8.40;;;6.38;;
38332;SDS011;25748;46.670;14.272;2022-07-25T14:15:31;7.90;;;6.13;;
38332;SDS011;25748;46.670;14.272;2022-07-25T14:17:57;8.23;;;6.57;;
38332;SDS011;25748;46.670;14.272;2022-07-25T14:20:23;7.32;;;5.68;;
38332;SDS011;25748;46.670;14.272;2022-07-25T14:22:48;7.88;;;6.50;;
38332;SDS011;25748;46.670;14.272;2022-07-25T14:25:14;7.40;;;6.05;;
38332;SDS011;25748;46.670;14.272;2022-07-25T14:27:40;7.88;;;6.00;;
38332;SDS011;25748;46.670;14.272;2022-07-25T14:30:07;6.53;;;5.82;;
38332;SDS011;25748;46.670;14.272;2022-07-25T14:32:33;7.82;;;6.25;;
38332;SDS011;25748;46.670;14.272;2022-07-25T14:35:00;6.72;;;6.03;;
38332;SDS011;25748;46.670;14.272;2022-07-25T14:37:26;9.68;;;6.88;;
38332;SDS011;25748;46.670;14.272;2022-07-25T14:39:55;8.25;;;6.32;;
38332;SDS011;25748;46.670;14.272;2022-07-25T14:42:21;7.28;;;5.80;;
38332;SDS011;25748;46.670;14.272;2022-07-25T14:44:47;9.77;;;6.20;;
38332;SDS011;25748;46.670;14.272;2022-07-25T14:47:13;5.90;;;5.18;;
38332;SDS011;25748;46.670;14.272;2022-07-25T14:49:39;9.80;;;6.32;;
38332;SDS011;25748;46.670;14.272;2022-07-25T14:52:05;9.13;;;6.55;;